sensor_id;sensor_type;location;lat;lon;timestamp;P1;durP1;ratioP1;P2;durP2;ratioP2
6979;SDS011;3530;52.832;10.680;2022-08-24T00:01:03;2.88;;;1.83;;
6979;SDS011;3530;52.832;10.680;2022-08-24T00:03:32;1.90;;;1.80;;
6979;SDS011;3530;52.832;10.680;2022-08-24T00:05:58;1.88;;;1.77;;
6979;SDS011;3530;52.832;10.680;2022-08-24T00:08:24;4.07;;;2.00;;
6979;SDS011;3530;52.832;10.680;2022-08-24T00:10:50;2.42;;;2.20;;
6979;SDS011;3530;52.832;10.680;2022-08-24T00:13:16;2.58;;;2.00;;
6979;SDS011;3530;52.832;10.680;2022-08-24T00:15:42;1.95;;;1.85;;
6979;SDS011;3530;52.832;10.680;2022-08-24T00:18:07;3.33;;;2.10;;
6979;SDS011;3530;52.832;10.680;2022-08-24T00:20:33;2.08;;;1.98;;
6979;SDS011;3530;52.832;10.680;2022-08-24T00:22:59;1.98;;;1.88;;
6979;SDS011;3530;52.832;10.680;2022-08-24T00:25:24;2.05;;;1.85;;
6979;SDS011;3530;52.832;10.680;2022-08-24T00:27:49;2.20;;;1.67;;
6979;SDS011;3530;52.832;10.680;2022-08-24T00:30:16;2.00;;;1.90;;
6979;SDS011;3530;52.832;10.680;2022-08-24T00:32:43;1.70;;;1.67;;
6979;SDS011;3530;52.832;10.680;2022-08-24T00:35:10;1.88;;;1.75;;
6979;SDS011;3530;52.832;10.680;2022-08-24T00:37:38;2.55;;;2.40;;
6979;SDS011;3530;52.832;10.680;2022-08-24T00:40:05;2.65;;;1.98;;
6979;SDS011;3530;52.832;10.680;2022-08-24T00:42:35;3.17;;;2.10;;
6979;SDS011;3530;52.832;10.680;2022-08-24T00:45:02;1.90;;;1.70;;
6979;SDS011;3530;52.832;10.680;2022-08-24T00:47:29;2.13;;;1.83;;
6979;SDS011;3530;52.832;10.680;2022-08-24T00:49:58;1.80;;;1.70;;
6979;SDS011;3530;52.832;10.680;2022-08-24T00:52:30;2.15;;;2.00;;
6979;SDS011;3530;52.832;10.680;2022-08-24T00:54:59;2.75;;;1.83;;
6979;SDS011;3530;52.832;10.680;2022-08-24T00:57:28;3.00;;;1.98;;
6979;SDS011;3530;52.832;10.680;2022-08-24T00:59:57;2.58;;;2.05;;
6979;SDS011;3530;52.832;10.680;2022-08-24T01:02:26;2.13;;;1.98;;
6979;SDS011;3530;52.832;10.680;2022-08-24T01:04:56;2.00;;;1.90;;
6979;SDS011;3530;52.832;10.680;2022-08-24T01:07:24;1.75;;;1.65;;
6979;SDS011;3530;52.832;10.680;2022-08-24T01:09:51;2.13;;;1.85;;
6979;SDS011;3530;52.832;10.680;2022-08-24T01:12:18;1.75;;;1.75;;
6979;SDS011;3530;52.832;10.680;2022-08-24T01:14:44;3.15;;;2.13;;
6979;SDS011;3530;52.832;10.680;2022-08-24T01:17:10;2.10;;;2.00;;
6979;SDS011;3530;52.832;10.680;2022-08-24T01:20:02;2.30;;;2.20;;
6979;SDS011;3530;52.832;10.680;2022-08-24T01:25:41;5.07;;;2.50;;
6979;SDS011;3530;52.832;10.680;2022-08-24T01:28:09;2.35;;;2.20;;
6979;SDS011;3530;52.832;10.680;2022-08-24T01:30:38;2.95;;;2.22;;
6979;SDS011;3530;52.832;10.680;2022-08-24T01:33:06;3.80;;;2.45;;
6979;SDS011;3530;52.832;10.680;2022-08-24T01:35:35;2.50;;;2.40;;
6979;SDS011;3530;52.832;10.680;2022-08-24T01:38:03;2.25;;;2.05;;
6979;SDS011;3530;52.832;10.680;2022-08-24T01:40:33;2.42;;;2.28;;
6979;SDS011;3530;52.832;10.680;2022-08-24T01:43:01;3.63;;;2.40;;
6979;SDS011;3530;52.832;10.680;2022-08-24T01:45:28;2.15;;;2.05;;
6979;SDS011;3530;52.832;10.680;2022-08-24T01:47:54;2.47;;;2.28;;
6979;SDS011;3530;52.832;10.680;2022-08-24T01:50:20;3.30;;;1.95;;
6979;SDS011;3530;52.832;10.680;2022-08-24T01:52:45;2.08;;;1.83;;
6979;SDS011;3530;52.832;10.680;2022-08-24T01:55:12;2.05;;;1.95;;
6979;SDS011;3530;52.832;10.680;2022-08-24T01:57:39;2.00;;;1.80;;
6979;SDS011;3530;52.832;10.680;2022-08-24T02:00:05;3.13;;;2.03;;
6979;SDS011;3530;52.832;10.680;2022-08-24T02:02:32;2.40;;;2.20;;
6979;SDS011;3530;52.832;10.680;2022-08-24T02:04:58;2.55;;;2.15;;
6979;SDS011;3530;52.832;10.680;2022-08-24T02:07:23;1.90;;;1.80;;
6979;SDS011;3530;52.832;10.680;2022-08-24T02:09:51;4.25;;;2.65;;
6979;SDS011;3530;52.832;10.680;2022-08-24T02:12:17;2.20;;;2.10;;
6979;SDS011;3530;52.832;10.680;2022-08-24T02:14:43;2.97;;;2.72;;
6979;SDS011;3530;52.832;10.680;2022-08-24T02:17:08;3.40;;;2.40;;
6979;SDS011;3530;52.832;10.680;2022-08-24T02:19:34;3.88;;;2.63;;
6979;SDS011;3530;52.832;10.680;2022-08-24T02:22:00;3.60;;;2.10;;
6979;SDS011;3530;52.832;10.680;2022-08-24T02:24:26;6.53;;;2.47;;
6979;SDS011;3530;52.832;10.680;2022-08-24T02:26:55;3.83;;;2.33;;
6979;SDS011;3530;52.832;10.680;2022-08-24T02:29:20;4.75;;;2.45;;
6979;SDS011;3530;52.832;10.680;2022-08-24T02:31:45;3.55;;;1.98;;
6979;SDS011;3530;52.832;10.680;2022-08-24T02:34:11;3.90;;;2.13;;
6979;SDS011;3530;52.832;10.680;2022-08-24T02:36:37;2.75;;;2.38;;
6979;SDS011;3530;52.832;10.680;2022-08-24T02:39:03;2.53;;;2.20;;
6979;SDS011;3530;52.832;10.680;2022-08-24T02:41:29;2.00;;;1.90;;
6979;SDS011;3530;52.832;10.680;2022-08-24T02:43:54;2.88;;;2.60;;
6979;SDS011;3530;52.832;10.680;2022-08-24T02:46:22;2.05;;;1.95;;
6979;SDS011;3530;52.832;10.680;2022-08-24T02:48:51;2.60;;;2.30;;
6979;SDS011;3530;52.832;10.680;2022-08-24T02:51:24;2.50;;;2.30;;
6979;SDS011;3530;52.832;10.680;2022-08-24T02:53:52;2.75;;;2.55;;
6979;SDS011;3530;52.832;10.680;2022-08-24T02:56:18;3.78;;;2.42;;
6979;SDS011;3530;52.832;10.680;2022-08-24T02:58:44;3.05;;;2.75;;
6979;SDS011;3530;52.832;10.680;2022-08-24T03:01:10;2.53;;;2.33;;
6979;SDS011;3530;52.832;10.680;2022-08-24T03:03:36;3.70;;;2.83;;
6979;SDS011;3530;52.832;10.680;2022-08-24T03:06:02;4.40;;;2.50;;
6979;SDS011;3530;52.832;10.680;2022-08-24T03:08:28;2.53;;;2.30;;
6979;SDS011;3530;52.832;10.680;2022-08-24T03:10:53;2.15;;;2.05;;
6979;SDS011;3530;52.832;10.680;2022-08-24T03:13:19;3.47;;;2.45;;
6979;SDS011;3530;52.832;10.680;2022-08-24T03:15:44;3.85;;;3.63;;
6979;SDS011;3530;52.832;10.680;2022-08-24T03:18:12;2.95;;;2.67;;
6979;SDS011;3530;52.832;10.680;2022-08-24T03:20:37;3.35;;;2.63;;
6979;SDS011;3530;52.832;10.680;2022-08-24T03:23:03;2.45;;;2.30;;
6979;SDS011;3530;52.832;10.680;2022-08-24T03:25:29;2.65;;;2.45;;
6979;SDS011;3530;52.832;10.680;2022-08-24T03:27:54;2.63;;;2.40;;
6979;SDS011;3530;52.832;10.680;2022-08-24T03:30:20;2.67;;;2.38;;
6979;SDS011;3530;52.832;10.680;2022-08-24T03:32:47;2.38;;;2.15;;
6979;SDS011;3530;52.832;10.680;2022-08-24T03:35:13;4.00;;;2.08;;
6979;SDS011;3530;52.832;10.680;2022-08-24T03:37:39;3.35;;;2.50;;
6979;SDS011;3530;52.832;10.680;2022-08-24T03:40:05;8.45;;;2.60;;
6979;SDS011;3530;52.832;10.680;2022-08-24T03:42:32;4.05;;;2.28;;
6979;SDS011;3530;52.832;10.680;2022-08-24T03:44:57;2.88;;;2.58;;
6979;SDS011;3530;52.832;10.680;2022-08-24T03:47:22;2.53;;;2.33;;
6979;SDS011;3530;52.832;10.680;2022-08-24T03:49:48;4.20;;;2.85;;
6979;SDS011;3530;52.832;10.680;2022-08-24T03:52:13;2.70;;;2.50;;
6979;SDS011;3530;52.832;10.680;2022-08-24T03:54:39;2.72;;;2.58;;
6979;SDS011;3530;52.832;10.680;2022-08-24T03:57:04;4.82;;;2.75;;
6979;SDS011;3530;52.832;10.680;2022-08-24T03:59:30;4.00;;;3.00;;
6979;SDS011;3530;52.832;10.680;2022-08-24T04:01:55;3.08;;;2.78;;
6979;SDS011;3530;52.832;10.680;2022-08-24T04:04:21;2.72;;;2.53;;
6979;SDS011;3530;52.832;10.680;2022-08-24T04:06:47;5.63;;;2.67;;
6979;SDS011;3530;52.832;10.680;2022-08-24T04:09:12;3.05;;;2.72;;
6979;SDS011;3530;52.832;10.680;2022-08-24T04:11:38;2.72;;;2.50;;
6979;SDS011;3530;52.832;10.680;2022-08-24T04:14:04;2.92;;;2.67;;
6979;SDS011;3530;52.832;10.680;2022-08-24T04:16:30;5.45;;;2.67;;
6979;SDS011;3530;52.832;10.680;2022-08-24T04:18:57;4.57;;;3.00;;
6979;SDS011;3530;52.832;10.680;2022-08-24T04:21:24;3.00;;;2.70;;
6979;SDS011;3530;52.832;10.680;2022-08-24T04:23:52;4.50;;;2.80;;
6979;SDS011;3530;52.832;10.680;2022-08-24T04:26:18;4.30;;;2.83;;
6979;SDS011;3530;52.832;10.680;2022-08-24T04:28:44;4.43;;;2.80;;
6979;SDS011;3530;52.832;10.680;2022-08-24T04:31:10;3.10;;;2.80;;
6979;SDS011;3530;52.832;10.680;2022-08-24T04:33:35;5.95;;;2.90;;
6979;SDS011;3530;52.832;10.680;2022-08-24T04:36:01;3.20;;;2.80;;
6979;SDS011;3530;52.832;10.680;2022-08-24T04:38:26;6.63;;;2.70;;
6979;SDS011;3530;52.832;10.680;2022-08-24T04:40:53;3.28;;;2.78;;
6979;SDS011;3530;52.832;10.680;2022-08-24T04:43:19;2.83;;;2.65;;
6979;SDS011;3530;52.832;10.680;2022-08-24T04:45:44;3.05;;;2.85;;
6979;SDS011;3530;52.832;10.680;2022-08-24T04:48:10;6.40;;;3.22;;
6979;SDS011;3530;52.832;10.680;2022-08-24T04:50:37;5.78;;;3.15;;
6979;SDS011;3530;52.832;10.680;2022-08-24T04:53:04;4.30;;;2.88;;
6979;SDS011;3530;52.832;10.680;2022-08-24T04:55:30;3.03;;;2.70;;
6979;SDS011;3530;52.832;10.680;2022-08-24T04:57:56;3.92;;;2.95;;
6979;SDS011;3530;52.832;10.680;2022-08-24T05:00:21;5.35;;;3.10;;
6979;SDS011;3530;52.832;10.680;2022-08-24T05:02:47;4.45;;;2.70;;
6979;SDS011;3530;52.832;10.680;2022-08-24T05:05:12;4.28;;;2.97;;
6979;SDS011;3530;52.832;10.680;2022-08-24T05:07:38;5.28;;;3.25;;
6979;SDS011;3530;52.832;10.680;2022-08-24T05:10:04;4.55;;;3.33;;
6979;SDS011;3530;52.832;10.680;2022-08-24T05:12:30;3.90;;;2.80;;
6979;SDS011;3530;52.832;10.680;2022-08-24T05:14:56;4.93;;;3.30;;
6979;SDS011;3530;52.832;10.680;2022-08-24T05:17:22;2.78;;;2.58;;
6979;SDS011;3530;52.832;10.680;2022-08-24T05:19:47;3.15;;;2.95;;
6979;SDS011;3530;52.832;10.680;2022-08-24T05:22:14;3.95;;;2.90;;
6979;SDS011;3530;52.832;10.680;2022-08-24T05:24:40;2.95;;;2.65;;
6979;SDS011;3530;52.832;10.680;2022-08-24T05:27:05;2.95;;;2.75;;
6979;SDS011;3530;52.832;10.680;2022-08-24T05:29:30;2.55;;;2.45;;
6979;SDS011;3530;52.832;10.680;2022-08-24T05:31:58;4.72;;;3.42;;
6979;SDS011;3530;52.832;10.680;2022-08-24T05:34:23;23.80;;;5.57;;
6979;SDS011;3530;52.832;10.680;2022-08-24T05:36:49;13.10;;;4.30;;
6979;SDS011;3530;52.832;10.680;2022-08-24T05:39:14;10.23;;;3.70;;
6979;SDS011;3530;52.832;10.680;2022-08-24T05:41:41;4.40;;;3.05;;
6979;SDS011;3530;52.832;10.680;2022-08-24T05:44:07;4.05;;;2.83;;
6979;SDS011;3530;52.832;10.680;2022-08-24T05:46:32;6.30;;;2.83;;
6979;SDS011;3530;52.832;10.680;2022-08-24T05:48:58;4.82;;;2.65;;
6979;SDS011;3530;52.832;10.680;2022-08-24T05:51:24;3.92;;;3.63;;
6979;SDS011;3530;52.832;10.680;2022-08-24T05:53:50;6.55;;;3.17;;
6979;SDS011;3530;52.832;10.680;2022-08-24T05:56:16;7.38;;;3.53;;
6979;SDS011;3530;52.832;10.680;2022-08-24T05:58:44;6.88;;;3.30;;
6979;SDS011;3530;52.832;10.680;2022-08-24T06:01:12;6.00;;;3.20;;
6979;SDS011;3530;52.832;10.680;2022-08-24T06:03:39;10.52;;;4.20;;
6979;SDS011;3530;52.832;10.680;2022-08-24T06:06:05;4.35;;;3.30;;
6979;SDS011;3530;52.832;10.680;2022-08-24T06:08:33;3.92;;;3.05;;
6979;SDS011;3530;52.832;10.680;2022-08-24T06:10:59;7.47;;;3.90;;
6979;SDS011;3530;52.832;10.680;2022-08-24T06:13:27;4.18;;;3.35;;
6979;SDS011;3530;52.832;10.680;2022-08-24T06:16:06;7.70;;;3.47;;
6979;SDS011;3530;52.832;10.680;2022-08-24T06:18:34;3.90;;;3.50;;
6979;SDS011;3530;52.832;10.680;2022-08-24T06:21:04;5.60;;;3.10;;
6979;SDS011;3530;52.832;10.680;2022-08-24T06:23:34;3.50;;;3.20;;
6979;SDS011;3530;52.832;10.680;2022-08-24T06:26:00;4.47;;;3.22;;
6979;SDS011;3530;52.832;10.680;2022-08-24T06:28:44;3.97;;;3.33;;
6979;SDS011;3530;52.832;10.680;2022-08-24T06:31:09;4.15;;;3.00;;
6979;SDS011;3530;52.832;10.680;2022-08-24T06:33:35;5.65;;;2.80;;
6979;SDS011;3530;52.832;10.680;2022-08-24T06:36:00;3.40;;;3.10;;
6979;SDS011;3530;52.832;10.680;2022-08-24T06:38:25;3.70;;;2.65;;
6979;SDS011;3530;52.832;10.680;2022-08-24T06:40:51;3.92;;;3.22;;
6979;SDS011;3530;52.832;10.680;2022-08-24T06:43:16;3.75;;;2.95;;
6979;SDS011;3530;52.832;10.680;2022-08-24T06:45:42;4.20;;;3.88;;
6979;SDS011;3530;52.832;10.680;2022-08-24T06:48:08;7.45;;;3.30;;
6979;SDS011;3530;52.832;10.680;2022-08-24T06:50:34;3.80;;;3.30;;
6979;SDS011;3530;52.832;10.680;2022-08-24T06:53:00;5.28;;;3.28;;
6979;SDS011;3530;52.832;10.680;2022-08-24T06:55:27;3.45;;;3.20;;
6979;SDS011;3530;52.832;10.680;2022-08-24T06:57:53;4.78;;;3.80;;
6979;SDS011;3530;52.832;10.680;2022-08-24T07:00:19;3.53;;;3.22;;
6979;SDS011;3530;52.832;10.680;2022-08-24T07:02:46;3.83;;;3.40;;
6979;SDS011;3530;52.832;10.680;2022-08-24T07:05:11;3.75;;;3.45;;
6979;SDS011;3530;52.832;10.680;2022-08-24T07:07:37;3.63;;;3.33;;
6979;SDS011;3530;52.832;10.680;2022-08-24T07:10:03;5.80;;;3.13;;
6979;SDS011;3530;52.832;10.680;2022-08-24T07:12:29;7.30;;;4.22;;
6979;SDS011;3530;52.832;10.680;2022-08-24T07:14:54;4.55;;;3.78;;
6979;SDS011;3530;52.832;10.680;2022-08-24T07:17:20;5.57;;;3.55;;
6979;SDS011;3530;52.832;10.680;2022-08-24T07:19:45;5.43;;;3.70;;
6979;SDS011;3530;52.832;10.680;2022-08-24T07:22:11;4.20;;;3.00;;
6979;SDS011;3530;52.832;10.680;2022-08-24T07:24:37;3.63;;;3.33;;
6979;SDS011;3530;52.832;10.680;2022-08-24T07:27:03;3.75;;;3.25;;
6979;SDS011;3530;52.832;10.680;2022-08-24T07:29:28;3.40;;;3.05;;
6979;SDS011;3530;52.832;10.680;2022-08-24T07:31:54;4.70;;;3.75;;
6979;SDS011;3530;52.832;10.680;2022-08-24T07:34:19;5.85;;;3.58;;
6979;SDS011;3530;52.832;10.680;2022-08-24T07:36:45;7.13;;;4.00;;
6979;SDS011;3530;52.832;10.680;2022-08-24T07:39:10;3.88;;;3.58;;
6979;SDS011;3530;52.832;10.680;2022-08-24T07:41:36;4.38;;;3.97;;
6979;SDS011;3530;52.832;10.680;2022-08-24T07:44:03;6.10;;;4.70;;
6979;SDS011;3530;52.832;10.680;2022-08-24T07:46:29;3.35;;;3.15;;
6979;SDS011;3530;52.832;10.680;2022-08-24T07:48:54;7.30;;;5.00;;
6979;SDS011;3530;52.832;10.680;2022-08-24T07:51:19;5.30;;;4.55;;
6979;SDS011;3530;52.832;10.680;2022-08-24T07:53:45;6.85;;;4.20;;
6979;SDS011;3530;52.832;10.680;2022-08-24T07:56:11;3.22;;;2.97;;
6979;SDS011;3530;52.832;10.680;2022-08-24T07:58:37;5.47;;;4.00;;
6979;SDS011;3530;52.832;10.680;2022-08-24T08:01:02;5.03;;;3.65;;
6979;SDS011;3530;52.832;10.680;2022-08-24T08:03:29;4.18;;;3.78;;
6979;SDS011;3530;52.832;10.680;2022-08-24T08:05:58;4.13;;;3.70;;
6979;SDS011;3530;52.832;10.680;2022-08-24T08:08:27;6.93;;;4.38;;
6979;SDS011;3530;52.832;10.680;2022-08-24T08:10:53;3.85;;;3.45;;
6979;SDS011;3530;52.832;10.680;2022-08-24T08:13:18;7.38;;;4.55;;
6979;SDS011;3530;52.832;10.680;2022-08-24T08:15:44;3.97;;;3.65;;
6979;SDS011;3530;52.832;10.680;2022-08-24T08:18:10;6.65;;;3.78;;
6979;SDS011;3530;52.832;10.680;2022-08-24T08:20:36;4.53;;;3.72;;
6979;SDS011;3530;52.832;10.680;2022-08-24T08:23:03;4.95;;;4.47;;
6979;SDS011;3530;52.832;10.680;2022-08-24T08:25:47;3.92;;;3.58;;
6979;SDS011;3530;52.832;10.680;2022-08-24T08:28:13;6.18;;;3.75;;
6979;SDS011;3530;52.832;10.680;2022-08-24T08:30:39;6.13;;;4.22;;
6979;SDS011;3530;52.832;10.680;2022-08-24T08:33:06;4.53;;;4.13;;
6979;SDS011;3530;52.832;10.680;2022-08-24T08:35:31;4.50;;;3.70;;
6979;SDS011;3530;52.832;10.680;2022-08-24T08:37:58;4.28;;;3.70;;
6979;SDS011;3530;52.832;10.680;2022-08-24T08:40:33;4.60;;;4.20;;
6979;SDS011;3530;52.832;10.680;2022-08-24T08:46:21;4.93;;;4.07;;
6979;SDS011;3530;52.832;10.680;2022-08-24T08:48:57;6.45;;;3.80;;
6979;SDS011;3530;52.832;10.680;2022-08-24T08:56:44;6.03;;;3.97;;
6979;SDS011;3530;52.832;10.680;2022-08-24T09:02:28;5.50;;;3.40;;
6979;SDS011;3530;52.832;10.680;2022-08-24T09:07:58;4.38;;;4.05;;
6979;SDS011;3530;52.832;10.680;2022-08-24T09:19:01;5.68;;;3.22;;
6979;SDS011;3530;52.832;10.680;2022-08-24T09:24:24;3.55;;;3.25;;
6979;SDS011;3530;52.832;10.680;2022-08-24T09:26:58;5.63;;;3.03;;
6979;SDS011;3530;52.832;10.680;2022-08-24T09:32:33;3.67;;;3.20;;
6979;SDS011;3530;52.832;10.680;2022-08-24T09:37:33;3.67;;;2.60;;
6979;SDS011;3530;52.832;10.680;2022-08-24T09:40:33;4.05;;;2.90;;
6979;SDS011;3530;52.832;10.680;2022-08-24T09:46:18;3.75;;;3.35;;
6979;SDS011;3530;52.832;10.680;2022-08-24T09:52:07;3.30;;;3.08;;
6979;SDS011;3530;52.832;10.680;2022-08-24T09:54:49;5.65;;;3.95;;
6979;SDS011;3530;52.832;10.680;2022-08-24T09:57:47;3.75;;;3.45;;
6979;SDS011;3530;52.832;10.680;2022-08-24T10:06:06;3.72;;;3.35;;
6979;SDS011;3530;52.832;10.680;2022-08-24T10:11:48;3.58;;;3.00;;
6979;SDS011;3530;52.832;10.680;2022-08-24T10:20:32;4.38;;;3.15;;
6979;SDS011;3530;52.832;10.680;2022-08-24T10:23:10;3.72;;;2.90;;
6979;SDS011;3530;52.832;10.680;2022-08-24T10:26:01;8.50;;;3.25;;
6979;SDS011;3530;52.832;10.680;2022-08-24T10:28:42;3.83;;;3.53;;
6979;SDS011;3530;52.832;10.680;2022-08-24T10:34:45;3.40;;;3.10;;
6979;SDS011;3530;52.832;10.680;2022-08-24T10:40:48;3.80;;;3.08;;
6979;SDS011;3530;52.832;10.680;2022-08-24T10:44:06;3.20;;;2.90;;
6979;SDS011;3530;52.832;10.680;2022-08-24T10:49:18;3.53;;;2.97;;
6979;SDS011;3530;52.832;10.680;2022-08-24T10:52:39;3.00;;;2.80;;
6979;SDS011;3530;52.832;10.680;2022-08-24T10:55:13;2.72;;;2.55;;
6979;SDS011;3530;52.832;10.680;2022-08-24T11:00:50;3.78;;;2.72;;
6979;SDS011;3530;52.832;10.680;2022-08-24T11:03:17;3.03;;;2.47;;
6979;SDS011;3530;52.832;10.680;2022-08-24T11:05:47;3.20;;;2.97;;
6979;SDS011;3530;52.832;10.680;2022-08-24T11:08:19;3.08;;;2.78;;
6979;SDS011;3530;52.832;10.680;2022-08-24T11:11:22;3.72;;;2.92;;
6979;SDS011;3530;52.832;10.680;2022-08-24T11:16:53;2.53;;;2.42;;
6979;SDS011;3530;52.832;10.680;2022-08-24T11:19:39;4.65;;;2.65;;
6979;SDS011;3530;52.832;10.680;2022-08-24T11:22:06;2.38;;;2.17;;
6979;SDS011;3530;52.832;10.680;2022-08-24T11:24:53;5.15;;;2.50;;
6979;SDS011;3530;52.832;10.680;2022-08-24T11:27:25;5.95;;;2.70;;
6979;SDS011;3530;52.832;10.680;2022-08-24T11:29:55;2.63;;;2.42;;
6979;SDS011;3530;52.832;10.680;2022-08-24T11:35:26;2.22;;;2.10;;
6979;SDS011;3530;52.832;10.680;2022-08-24T11:40:29;4.05;;;2.72;;
6979;SDS011;3530;52.832;10.680;2022-08-24T11:45:40;2.45;;;2.28;;
6979;SDS011;3530;52.832;10.680;2022-08-24T11:48:14;2.55;;;2.28;;
6979;SDS011;3530;52.832;10.680;2022-08-24T11:50:51;3.13;;;2.35;;
6979;SDS011;3530;52.832;10.680;2022-08-24T11:53:34;4.63;;;2.65;;
6979;SDS011;3530;52.832;10.680;2022-08-24T11:56:24;4.55;;;2.38;;
6979;SDS011;3530;52.832;10.680;2022-08-24T11:59:02;2.40;;;2.20;;
6979;SDS011;3530;52.832;10.680;2022-08-24T12:01:33;2.53;;;2.33;;
6979;SDS011;3530;52.832;10.680;2022-08-24T12:04:17;2.45;;;2.30;;
6979;SDS011;3530;52.832;10.680;2022-08-24T12:12:12;4.32;;;2.20;;
6979;SDS011;3530;52.832;10.680;2022-08-24T12:17:35;2.35;;;2.25;;
6979;SDS011;3530;52.832;10.680;2022-08-24T12:20:28;2.47;;;2.28;;
6979;SDS011;3530;52.832;10.680;2022-08-24T12:22:58;2.63;;;2.42;;
6979;SDS011;3530;52.832;10.680;2022-08-24T12:25:29;4.35;;;2.67;;
6979;SDS011;3530;52.832;10.680;2022-08-24T12:28:35;4.38;;;2.20;;
6979;SDS011;3530;52.832;10.680;2022-08-24T12:31:22;2.25;;;2.15;;
6979;SDS011;3530;52.832;10.680;2022-08-24T12:34:04;2.30;;;2.10;;
6979;SDS011;3530;52.832;10.680;2022-08-24T12:39:27;2.15;;;2.05;;
6979;SDS011;3530;52.832;10.680;2022-08-24T12:42:02;2.05;;;1.95;;
6979;SDS011;3530;52.832;10.680;2022-08-24T12:45:05;2.55;;;2.00;;
6979;SDS011;3530;52.832;10.680;2022-08-24T12:47:40;3.22;;;2.03;;
6979;SDS011;3530;52.832;10.680;2022-08-24T12:50:12;2.83;;;2.25;;
6979;SDS011;3530;52.832;10.680;2022-08-24T12:55:49;4.15;;;2.40;;
6979;SDS011;3530;52.832;10.680;2022-08-24T13:01:23;2.83;;;2.38;;
6979;SDS011;3530;52.832;10.680;2022-08-24T13:06:41;4.65;;;2.13;;
6979;SDS011;3530;52.832;10.680;2022-08-24T13:09:14;4.22;;;2.03;;
6979;SDS011;3530;52.832;10.680;2022-08-24T13:11:52;2.70;;;2.50;;
6979;SDS011;3530;52.832;10.680;2022-08-24T13:14:23;2.70;;;2.25;;
6979;SDS011;3530;52.832;10.680;2022-08-24T13:22:36;2.45;;;2.28;;
6979;SDS011;3530;52.832;10.680;2022-08-24T13:29:43;2.65;;;2.22;;
6979;SDS011;3530;52.832;10.680;2022-08-24T13:32:26;2.65;;;2.45;;
6979;SDS011;3530;52.832;10.680;2022-08-24T13:34:56;4.07;;;2.22;;
6979;SDS011;3530;52.832;10.680;2022-08-24T13:37:23;4.47;;;2.30;;
6979;SDS011;3530;52.832;10.680;2022-08-24T13:42:54;2.83;;;2.63;;
6979;SDS011;3530;52.832;10.680;2022-08-24T13:48:33;4.07;;;2.28;;
6979;SDS011;3530;52.832;10.680;2022-08-24T13:51:16;2.17;;;1.98;;
6979;SDS011;3530;52.832;10.680;2022-08-24T14:04:51;2.97;;;1.70;;
6979;SDS011;3530;52.832;10.680;2022-08-24T14:07:29;1.90;;;1.75;;
6979;SDS011;3530;52.832;10.680;2022-08-24T14:10:00;1.83;;;1.73;;
6979;SDS011;3530;52.832;10.680;2022-08-24T14:15:06;1.80;;;1.70;;
6979;SDS011;3530;52.832;10.680;2022-08-24T14:18:12;1.70;;;1.60;;
6979;SDS011;3530;52.832;10.680;2022-08-24T14:31:41;2.25;;;1.90;;
6979;SDS011;3530;52.832;10.680;2022-08-24T14:34:27;4.45;;;1.63;;
6979;SDS011;3530;52.832;10.680;2022-08-24T14:40:19;1.60;;;1.50;;
6979;SDS011;3530;52.832;10.680;2022-08-24T14:42:55;1.90;;;1.80;;
6979;SDS011;3530;52.832;10.680;2022-08-24T14:48:16;2.40;;;2.20;;
6979;SDS011;3530;52.832;10.680;2022-08-24T14:56:20;1.80;;;1.70;;
6979;SDS011;3530;52.832;10.680;2022-08-24T15:06:52;2.97;;;1.83;;
6979;SDS011;3530;52.832;10.680;2022-08-24T15:09:30;2.58;;;2.25;;
6979;SDS011;3530;52.832;10.680;2022-08-24T15:12:09;1.70;;;1.67;;
6979;SDS011;3530;52.832;10.680;2022-08-24T15:14:47;2.35;;;2.15;;
6979;SDS011;3530;52.832;10.680;2022-08-24T15:17:18;2.60;;;2.40;;
6979;SDS011;3530;52.832;10.680;2022-08-24T15:19:50;2.30;;;2.10;;
6979;SDS011;3530;52.832;10.680;2022-08-24T15:22:24;3.40;;;2.10;;
6979;SDS011;3530;52.832;10.680;2022-08-24T15:27:42;4.10;;;2.28;;
6979;SDS011;3530;52.832;10.680;2022-08-24T15:30:17;2.03;;;1.92;;
6979;SDS011;3530;52.832;10.680;2022-08-24T15:32:50;2.30;;;2.20;;
6979;SDS011;3530;52.832;10.680;2022-08-24T15:35:29;3.65;;;2.47;;
6979;SDS011;3530;52.832;10.680;2022-08-24T15:41:04;2.15;;;2.05;;
6979;SDS011;3530;52.832;10.680;2022-08-24T15:43:33;2.17;;;2.08;;
6979;SDS011;3530;52.832;10.680;2022-08-24T15:46:01;3.13;;;2.08;;
6979;SDS011;3530;52.832;10.680;2022-08-24T15:48:27;2.33;;;2.13;;
6979;SDS011;3530;52.832;10.680;2022-08-24T15:50:54;3.80;;;2.33;;
6979;SDS011;3530;52.832;10.680;2022-08-24T15:58:45;5.30;;;1.90;;
6979;SDS011;3530;52.832;10.680;2022-08-24T16:03:59;2.17;;;2.08;;
6979;SDS011;3530;52.832;10.680;2022-08-24T16:09:01;3.15;;;1.90;;
6979;SDS011;3530;52.832;10.680;2022-08-24T16:14:39;3.63;;;2.00;;
6979;SDS011;3530;52.832;10.680;2022-08-24T16:17:22;2.05;;;1.90;;
6979;SDS011;3530;52.832;10.680;2022-08-24T16:19:54;4.97;;;2.20;;
6979;SDS011;3530;52.832;10.680;2022-08-24T16:22:26;3.95;;;2.10;;
6979;SDS011;3530;52.832;10.680;2022-08-24T16:25:16;2.47;;;2.20;;
6979;SDS011;3530;52.832;10.680;2022-08-24T16:28:04;3.20;;;2.33;;
6979;SDS011;3530;52.832;10.680;2022-08-24T16:35:53;3.35;;;2.30;;
6979;SDS011;3530;52.832;10.680;2022-08-24T16:38:19;2.95;;;2.15;;
6979;SDS011;3530;52.832;10.680;2022-08-24T16:40:44;3.42;;;2.13;;
6979;SDS011;3530;52.832;10.680;2022-08-24T16:43:09;3.85;;;2.28;;
6979;SDS011;3530;52.832;10.680;2022-08-24T16:45:35;3.72;;;2.22;;
6979;SDS011;3530;52.832;10.680;2022-08-24T16:48:00;1.75;;;1.70;;
6979;SDS011;3530;52.832;10.680;2022-08-24T16:50:25;2.42;;;1.73;;
6979;SDS011;3530;52.832;10.680;2022-08-24T16:52:51;2.10;;;1.90;;
6979;SDS011;3530;52.832;10.680;2022-08-24T16:55:16;3.85;;;2.40;;
6979;SDS011;3530;52.832;10.680;2022-08-24T16:57:42;4.90;;;2.60;;
6979;SDS011;3530;52.832;10.680;2022-08-24T17:00:09;2.67;;;2.25;;
6979;SDS011;3530;52.832;10.680;2022-08-24T17:02:39;2.20;;;2.10;;
6979;SDS011;3530;52.832;10.680;2022-08-24T17:05:05;2.45;;;1.92;;
6979;SDS011;3530;52.832;10.680;2022-08-24T17:07:31;2.03;;;1.92;;
6979;SDS011;3530;52.832;10.680;2022-08-24T17:09:57;3.15;;;2.25;;
6979;SDS011;3530;52.832;10.680;2022-08-24T17:12:25;2.58;;;2.38;;
6979;SDS011;3530;52.832;10.680;2022-08-24T17:14:51;5.88;;;2.20;;
6979;SDS011;3530;52.832;10.680;2022-08-24T17:17:17;7.47;;;2.15;;
6979;SDS011;3530;52.832;10.680;2022-08-24T17:19:47;2.38;;;1.90;;
6979;SDS011;3530;52.832;10.680;2022-08-24T17:22:13;3.83;;;2.03;;
6979;SDS011;3530;52.832;10.680;2022-08-24T17:24:39;2.45;;;2.22;;
6979;SDS011;3530;52.832;10.680;2022-08-24T17:27:04;2.90;;;2.55;;
6979;SDS011;3530;52.832;10.680;2022-08-24T17:29:30;2.28;;;2.05;;
6979;SDS011;3530;52.832;10.680;2022-08-24T17:31:55;4.88;;;2.92;;
6979;SDS011;3530;52.832;10.680;2022-08-24T17:34:22;4.03;;;2.50;;
6979;SDS011;3530;52.832;10.680;2022-08-24T17:36:49;3.83;;;2.80;;
6979;SDS011;3530;52.832;10.680;2022-08-24T17:39:17;4.32;;;2.75;;
6979;SDS011;3530;52.832;10.680;2022-08-24T17:41:42;2.70;;;2.50;;
6979;SDS011;3530;52.832;10.680;2022-08-24T17:44:09;3.75;;;2.90;;
6979;SDS011;3530;52.832;10.680;2022-08-24T17:46:37;2.80;;;2.55;;
6979;SDS011;3530;52.832;10.680;2022-08-24T17:49:04;5.75;;;2.80;;
6979;SDS011;3530;52.832;10.680;2022-08-24T17:51:31;3.33;;;2.90;;
6979;SDS011;3530;52.832;10.680;2022-08-24T17:53:56;3.55;;;2.47;;
6979;SDS011;3530;52.832;10.680;2022-08-24T17:56:22;5.07;;;2.88;;
6979;SDS011;3530;52.832;10.680;2022-08-24T17:58:47;3.38;;;2.95;;
6979;SDS011;3530;52.832;10.680;2022-08-24T18:01:31;7.18;;;3.28;;
6979;SDS011;3530;52.832;10.680;2022-08-24T18:03:57;3.40;;;2.90;;
6979;SDS011;3530;52.832;10.680;2022-08-24T18:06:22;6.18;;;2.70;;
6979;SDS011;3530;52.832;10.680;2022-08-24T18:08:49;2.65;;;2.40;;
6979;SDS011;3530;52.832;10.680;2022-08-24T18:11:14;2.92;;;2.55;;
6979;SDS011;3530;52.832;10.680;2022-08-24T18:13:40;2.78;;;2.53;;
6979;SDS011;3530;52.832;10.680;2022-08-24T18:16:08;5.05;;;2.75;;
6979;SDS011;3530;52.832;10.680;2022-08-24T18:18:40;6.70;;;2.88;;
6979;SDS011;3530;52.832;10.680;2022-08-24T18:21:06;5.90;;;2.70;;